Time;durP1;ratioP1;P1;durP2;ratioP2;P2;SDS_P1;SDS_P2;PMS_P1;PMS_P2;Temp;Humidity;BMP_temperature;BMP_pressure;BME280_temperature;BME280_humidity;BME280_pressure;Samples;Min_cycle;Max_cycle;Signal;HPM_P1;HPM_P2
2021/05/03 00:00:28;;;;;;;65.60;60.75;;;18.50;99.90;;;;;;5073310;28;20446;-68
2021/05/03 00:02:55;;;;;;;69.63;64.95;;;18.60;99.90;;;;;;5072923;28;20063;-67
2021/05/03 00:05:27;;;;;;;84.43;63.13;;;18.80;99.90;;;;;;5073095;28;20021;-68
2021/05/03 00:07:55;;;;;;;62.20;57.92;;;18.80;99.90;;;;;;5073020;28;20027;-68
2021/05/03 00:10:23;;;;;;;63.17;58.97;;;18.90;99.90;;;;;;5071513;28;20481;-68
2021/05/03 00:12:50;;;;;;;66.60;62.08;;;19.00;99.90;;;;;;5072763;28;20052;-68
2021/05/03 00:15:18;;;;;;;65.43;61.15;;;19.20;99.90;;;;;;5072691;28;20039;-67
2021/05/03 00:17:46;;;;;;;65.15;60.88;;;19.40;99.90;;;;;;5073453;28;20430;-68
2021/05/03 00:20:14;;;;;;;64.47;60.35;;;19.50;99.90;;;;;;5076967;28;20381;-68
2021/05/03 00:22:41;;;;;;;65.93;60.97;;;19.60;99.90;;;;;;5075427;28;20538;-67
2021/05/03 00:25:09;;;;;;;67.97;62.40;;;19.80;99.90;;;;;;5076566;28;20477;-67
2021/05/03 00:27:36;;;;;;;66.13;61.53;;;19.90;99.90;;;;;;5076668;28;20035;-66
2021/05/03 00:30:05;;;;;;;61.42;57.15;;;20.20;99.90;;;;;;5076607;28;20017;-67
2021/05/03 00:32:32;;;;;;;58.28;54.35;;;20.10;99.90;;;;;;5076456;28;20024;-66
2021/05/03 00:35:00;;;;;;;56.72;52.65;;;20.10;99.90;;;;;;5076445;28;20047;-66
2021/05/03 00:37:27;;;;;;;57.75;53.50;;;20.10;99.90;;;;;;5075162;28;20029;-67
2021/05/03 00:39:54;;;;;;;55.67;52.03;;;20.20;99.90;;;;;;5076363;28;20052;-66
2021/05/03 00:42:22;;;;;;;53.95;50.08;;;20.20;99.90;;;;;;5076182;28;20068;-66
2021/05/03 00:44:51;;;;;;;56.83;52.42;;;20.20;99.90;;;;;;5076327;28;20032;-66
2021/05/03 00:47:20;;;;;;;48.70;45.60;;;20.50;99.90;;;;;;5076640;28;20032;-67
2021/05/03 00:49:47;;;;;;;50.50;47.10;;;20.40;99.90;;;;;;5076104;28;20459;-67
2021/05/03 00:52:15;;;;;;;50.28;46.88;;;20.50;99.90;;;;;;5076085;28;20028;-67
2021/05/03 00:54:42;;;;;;;44.97;41.88;;;20.50;99.90;;;;;;5076237;28;20021;-67
2021/05/03 00:57:10;;;;;;;46.15;42.78;;;20.60;99.90;;;;;;5076071;28;20032;-66
2021/05/03 00:59:37;;;;;;;49.08;45.58;;;20.70;99.90;;;;;;5075930;28;20427;-66
2021/05/03 01:02:05;;;;;;;44.80;41.70;;;20.90;99.90;;;;;;5075740;28;20501;-66
2021/05/03 01:04:32;;;;;;;47.75;44.35;;;21.00;99.90;;;;;;5075816;28;20105;-68
2021/05/03 01:06:59;;;;;;;47.42;43.83;;;21.10;99.90;;;;;;5075828;28;20533;-67
2021/05/03 01:09:27;;;;;;;48.95;45.55;;;21.30;99.90;;;;;;5075751;28;20149;-68
2021/05/03 01:11:54;;;;;;;40.88;38.08;;;21.50;99.90;;;;;;5075712;28;20016;-67
2021/05/03 01:14:22;;;;;;;41.85;38.97;;;21.70;99.90;;;;;;5075934;28;20024;-68
2021/05/03 01:16:49;;;;;;;42.25;39.22;;;21.70;99.90;;;;;;5074485;28;20477;-67
2021/05/03 01:19:21;;;;;;;42.40;39.03;;;21.70;99.90;;;;;;5075638;28;20027;-68
2021/05/03 01:21:49;;;;;;;38.75;36.05;;;21.60;99.90;;;;;;5075503;28;20024;-68
2021/05/03 01:24:17;;;;;;;38.72;35.67;;;21.70;99.90;;;;;;5075480;28;20020;-68
2021/05/03 01:26:46;;;;;;;36.67;33.97;;;21.90;99.90;;;;;;5075581;28;20044;-67
2021/05/03 01:29:14;;;;;;;39.60;36.50;;;22.00;99.90;;;;;;5074719;28;20021;-69
2021/05/03 01:31:47;;;;;;;40.17;37.05;;;22.10;99.90;;;;;;5075150;28;20485;-68
2021/05/03 01:34:14;;;;;;;39.17;35.95;;;22.30;99.90;;;;;;5075395;28;20020;-68
2021/05/03 01:36:44;;;;;;;34.75;31.60;;;22.10;99.90;;;;;;5075221;28;20058;-68
2021/05/03 01:39:14;;;;;;;30.60;28.17;;;22.00;99.90;;;;;;5075309;28;20028;-68
2021/05/03 01:41:41;;;;;;;33.55;31.08;;;22.00;99.90;;;;;;5075094;28;20481;-69
2021/05/03 01:44:11;;;;;;;30.48;28.20;;;22.40;99.90;;;;;;5057407;28;20043;-68
2021/05/03 01:46:39;;;;;;;29.92;27.60;;;22.70;99.90;;;;;;5073950;28;20473;-68
2021/05/03 01:49:09;;;;;;;29.23;26.95;;;22.80;99.90;;;;;;5075179;28;20176;-68
2021/05/03 01:51:39;;;;;;;26.73;24.73;;;22.70;99.90;;;;;;5075148;28;20027;-68
2021/05/03 01:54:07;;;;;;;25.57;23.40;;;23.00;99.90;;;;;;5075051;28;20514;-67
2021/05/03 01:56:35;;;;;;;22.88;21.08;;;22.90;99.90;;;;;;5074988;28;20331;-67
2021/05/03 01:59:05;;;;;;;22.02;20.10;;;23.00;99.90;;;;;;5074930;28;20391;-67
2021/05/03 02:01:34;;;;;;;18.92;17.38;;;23.10;99.90;;;;;;5074931;28;20031;-68
2021/05/03 02:04:02;;;;;;;18.45;16.92;;;23.10;99.90;;;;;;5074802;28;20100;-67
2021/05/03 02:06:30;;;;;;;18.52;16.98;;;23.20;99.90;;;;;;5074850;28;20070;-67
2021/05/03 02:08:58;;;;;;;20.83;19.05;;;23.20;99.90;;;;;;5075018;28;20032;-67
2021/05/03 02:11:25;;;;;;;18.23;16.48;;;23.30;99.90;;;;;;5074660;28;20016;-67
2021/05/03 02:13:52;;;;;;;14.57;13.18;;;23.40;99.90;;;;;;5074792;28;20482;-67
2021/05/03 02:16:20;;;;;;;17.27;15.68;;;23.30;99.90;;;;;;5074589;28;20025;-68
2021/05/03 02:18:47;;;;;;;13.88;12.82;;;23.60;99.90;;;;;;5074709;28;20029;-68
2021/05/03 02:21:15;;;;;;;14.23;12.93;;;23.80;99.90;;;;;;5074483;28;20049;-67
2021/05/03 02:23:42;;;;;;;14.50;13.20;;;23.80;99.90;;;;;;5074431;28;20454;-68
2021/05/03 02:26:09;;;;;;;14.18;13.07;;;23.50;99.90;;;;;;5074381;28;20028;-68
2021/05/03 02:28:37;;;;;;;15.52;13.93;;;23.60;99.90;;;;;;5074445;28;20506;-68
2021/05/03 02:31:04;;;;;;;10.98;10.10;;;23.90;99.90;;;;;;5074133;28;20012;-67
2021/05/03 02:33:32;;;;;;;13.50;12.40;;;23.90;98.50;;;;;;5073023;28;20029;-67
2021/05/03 02:36:00;;;;;;;13.20;12.10;;;24.10;99.60;;;;;;5074127;28;20034;-68
2021/05/03 02:38:30;;;;;;;12.98;11.77;;;24.30;99.60;;;;;;5074025;28;20027;-68
2021/05/03 02:40:57;;;;;;;11.52;10.52;;;24.40;99.10;;;;;;5074598;28;20365;-68
2021/05/03 02:43:25;;;;;;;12.32;11.13;;;24.50;97.80;;;;;;5073605;28;20044;-67
2021/05/03 02:45:52;;;;;;;12.10;10.93;;;24.30;97.00;;;;;;5073982;28;20025;-68
2021/05/03 02:48:20;;;;;;;14.57;13.02;;;24.40;97.50;;;;;;5073931;28;20409;-68
2021/05/03 02:50:47;;;;;;;21.10;16.70;;;24.50;99.90;;;;;;5073742;28;20099;-69
2021/05/03 02:53:14;;;;;;;21.38;17.55;;;24.30;99.90;;;;;;5073830;28;20025;-67
2021/05/03 02:55:42;;;;;;;21.23;19.25;;;24.20;99.90;;;;;;5073803;28;20380;-67
2021/05/03 02:58:09;;;;;;;24.90;21.38;;;24.30;99.90;;;;;;5073682;28;20028;-68
2021/05/03 03:00:37;;;;;;;21.40;19.20;;;24.10;99.90;;;;;;5073577;28;20030;-67
2021/05/03 03:03:05;;;;;;;24.13;21.77;;;24.00;99.90;;;;;;5072117;28;20043;-68
2021/05/03 03:05:33;;;;;;;25.13;22.60;;;23.90;99.90;;;;;;5073536;28;20048;-67
2021/05/03 03:08:02;;;;;;;25.33;22.75;;;23.90;99.90;;;;;;5072335;28;20031;-67
2021/05/03 03:10:30;;;;;;;25.83;23.15;;;24.00;99.90;;;;;;5073322;28;20020;-68
2021/05/03 03:13:03;;;;;;;25.88;23.45;;;23.90;99.90;;;;;;5073377;28;20024;-67
2021/05/03 03:15:33;;;;;;;26.02;23.38;;;23.80;99.90;;;;;;5073425;28;20393;-66
2021/05/03 03:18:03;;;;;;;27.15;24.42;;;23.80;99.90;;;;;;5073645;28;20036;-65
2021/05/03 03:20:30;;;;;;;25.67;23.35;;;23.90;99.90;;;;;;5072119;28;20556;-65
2021/05/03 03:22:58;;;;;;;27.98;25.02;;;23.90;99.90;;;;;;5073210;28;20037;-67
2021/05/03 03:25:26;;;;;;;34.17;27.13;;;23.90;99.90;;;;;;5073273;28;20025;-68
2021/05/03 03:27:54;;;;;;;36.72;27.88;;;23.70;99.90;;;;;;5073249;28;20389;-68
2021/05/03 03:30:21;;;;;;;28.15;25.25;;;24.00;99.90;;;;;;5073285;28;20495;-69
2021/05/03 03:32:49;;;;;;;26.40;23.67;;;24.20;99.90;;;;;;5073103;28;20068;-68
2021/05/03 03:35:18;;;;;;;24.67;22.27;;;24.30;99.90;;;;;;5073225;28;20103;-67
2021/05/03 03:37:46;;;;;;;23.60;21.30;;;24.30;99.90;;;;;;5073239;28;20031;-67
2021/05/03 03:40:15;;;;;;;23.52;20.23;;;24.30;99.90;;;;;;5071928;28;20024;-68
2021/05/03 03:42:43;;;;;;;22.20;20.00;;;24.20;99.90;;;;;;5072900;28;20037;-68
2021/05/03 03:45:12;;;;;;;19.40;17.60;;;24.40;99.90;;;;;;5073128;28;20086;-67
2021/05/03 03:47:39;;;;;;;19.40;17.50;;;24.40;99.90;;;;;;5073099;28;20013;-68
2021/05/03 03:50:08;;;;;;;17.13;15.48;;;24.60;99.90;;;;;;5073074;28;20016;-67
2021/05/03 03:52:38;;;;;;;18.15;16.17;;;24.50;99.90;;;;;;5071116;28;20032;-67
2021/05/03 03:55:06;;;;;;;18.27;14.40;;;24.40;99.90;;;;;;5073004;28;20029;-68
2021/05/03 03:57:37;;;;;;;13.43;12.15;;;24.20;99.90;;;;;;5072952;28;20028;-69
2021/05/03 04:00:04;;;;;;;;;;;24.20;99.90;;;;;;5072162;28;20035;-69
2021/05/03 04:02:34;;;;;;;12.45;11.32;;;24.10;99.90;;;;;;5072884;28;19909;-69
2021/05/03 04:05:11;;;;;;;10.93;9.65;;;23.90;99.90;;;;;;5072850;28;20035;-69
2021/05/03 04:10:26;;;;;;;10.77;8.90;;;23.60;99.90;;;;;;5072896;28;20021;-69
2021/05/03 04:23:58;;;;;;;10.57;8.15;;;23.70;99.90;;;;;;5049307;28;20064;-67
2021/05/03 04:26:26;;;;;;;27.17;11.68;;;23.80;99.90;;;;;;5072611;28;20063;-67
2021/05/03 04:28:55;;;;;;;13.15;9.10;;;23.80;99.90;;;;;;5072667;28;20078;-68
2021/05/03 04:31:23;;;;;;;12.00;8.93;;;23.70;99.90;;;;;;5072282;28;20024;-68
2021/05/03 04:33:51;;;;;;;12.75;9.82;;;23.50;99.90;;;;;;5072549;28;20086;-69
2021/05/03 04:36:19;;;;;;;31.15;11.88;;;23.60;99.90;;;;;;5072643;28;20020;-68
2021/05/03 04:38:47;;;;;;;16.65;10.25;;;23.60;99.90;;;;;;5072771;28;20388;-69
2021/05/03 04:41:15;;;;;;;14.48;9.30;;;23.60;99.90;;;;;;5054637;28;20032;-69
2021/05/03 04:43:43;;;;;;;17.30;10.32;;;23.40;99.90;;;;;;5072248;28;20052;-68
2021/05/03 04:46:10;;;;;;;10.00;9.05;;;23.50;99.90;;;;;;5072312;28;20557;-67
2021/05/03 04:48:38;;;;;;;32.00;12.38;;;23.40;99.90;;;;;;5072385;28;20389;-68
2021/05/03 04:51:05;;;;;;;10.52;9.45;;;23.30;99.90;;;;;;5072469;28;20100;-69
2021/05/03 04:53:33;;;;;;;10.63;9.70;;;23.30;99.90;;;;;;5071107;28;20397;-69
2021/05/03 04:56:01;;;;;;;12.32;10.07;;;23.20;99.90;;;;;;5072288;28;20032;-69
2021/05/03 04:58:29;;;;;;;16.48;11.73;;;23.00;99.90;;;;;;5072383;28;20024;-69
2021/05/03 05:00:56;;;;;;;17.00;12.48;;;23.10;99.90;;;;;;5071102;28;20027;-67
2021/05/03 05:03:23;;;;;;;12.82;11.40;;;22.90;99.90;;;;;;5072027;28;20490;-68
2021/05/03 05:05:52;;;;;;;13.25;11.60;;;22.90;99.90;;;;;;5073111;28;20036;-69
2021/05/03 05:08:21;;;;;;;13.32;12.07;;;22.80;99.90;;;;;;5075807;28;20031;-68
2021/05/03 05:10:49;;;;;;;24.75;15.20;;;22.80;99.90;;;;;;5074437;28;20405;-69
2021/05/03 05:13:16;;;;;;;46.63;18.38;;;22.80;99.90;;;;;;5075693;28;20465;-69
2021/05/03 05:15:43;;;;;;;39.65;18.05;;;22.80;99.90;;;;;;5075561;28;20029;-67
2021/05/03 05:18:12;;;;;;;47.28;17.15;;;22.80;99.90;;;;;;5075718;28;20070;-68
2021/05/03 05:20:40;;;;;;;17.77;14.43;;;22.80;99.90;;;;;;5075650;28;20397;-69
2021/05/03 05:23:09;;;;;;;40.78;17.35;;;22.60;99.90;;;;;;5075401;28;20028;-69
2021/05/03 05:25:36;;;;;;;15.98;13.50;;;22.60;99.90;;;;;;5075510;28;20017;-68
2021/05/03 05:28:04;;;;;;;14.98;12.73;;;22.60;99.90;;;;;;5075429;28;20055;-68
2021/05/03 05:30:32;;;;;;;28.77;14.25;;;22.50;99.90;;;;;;5074017;28;20028;-68
2021/05/03 05:32:59;;;;;;;13.52;11.10;;;22.50;99.90;;;;;;5075357;28;20047;-68
2021/05/03 05:35:26;;;;;;;14.25;12.43;;;22.50;99.90;;;;;;5073944;28;20067;-69
2021/05/03 05:37:54;;;;;;;20.08;13.20;;;22.50;99.90;;;;;;5075269;28;20047;-67
2021/05/03 05:40:21;;;;;;;20.88;13.95;;;22.40;99.90;;;;;;5073920;28;20028;-68
2021/05/03 05:42:48;;;;;;;20.50;14.10;;;22.30;99.90;;;;;;5075007;28;20048;-68
2021/05/03 05:45:16;;;;;;;15.45;12.45;;;22.30;99.90;;;;;;5075084;28;20027;-68
2021/05/03 05:47:44;;;;;;;24.80;14.55;;;22.30;99.90;;;;;;5075287;28;20047;-68
2021/05/03 05:50:11;;;;;;;21.40;13.07;;;22.20;99.90;;;;;;5075026;28;20036;-68
2021/05/03 05:52:38;;;;;;;13.38;11.98;;;22.10;99.90;;;;;;5074998;28;20029;-70
2021/05/03 05:55:06;;;;;;;26.10;12.95;;;22.10;99.90;;;;;;5073692;28;20035;-69
2021/05/03 05:57:33;;;;;;;34.25;16.45;;;22.10;99.90;;;;;;5074960;28;20020;-69
2021/05/03 06:00:01;;;;;;;18.60;13.63;;;22.10;99.90;;;;;;5074961;28;20051;-69
2021/05/03 06:02:28;;;;;;;16.88;14.40;;;22.00;99.90;;;;;;5074684;28;20104;-70
2021/05/03 06:04:55;;;;;;;14.32;13.10;;;22.00;99.90;;;;;;5074745;28;20025;-69
2021/05/03 06:07:23;;;;;;;14.65;13.40;;;21.90;99.90;;;;;;5074744;28;20427;-69
2021/05/03 06:09:50;;;;;;;14.80;13.60;;;21.80;99.90;;;;;;5074767;28;20017;-69
2021/05/03 06:12:17;;;;;;;15.68;14.40;;;21.70;99.90;;;;;;5074594;28;20495;-69
2021/05/03 06:14:44;;;;;;;14.82;13.60;;;21.70;99.90;;;;;;5074753;28;20099;-69
2021/05/03 06:17:15;;;;;;;32.55;18.58;;;21.60;99.90;;;;;;5074261;28;20027;-68
2021/05/03 06:19:42;;;;;;;33.35;18.38;;;21.60;99.90;;;;;;5074835;28;20024;-71
2021/05/03 06:22:09;;;;;;;16.08;14.52;;;21.60;99.90;;;;;;5074387;28;20512;-69
2021/05/03 06:24:37;;;;;;;16.35;15.23;;;21.50;99.90;;;;;;5074530;28;20388;-69
2021/05/03 06:27:04;;;;;;;17.83;15.95;;;21.40;99.90;;;;;;5074477;28;20025;-69
2021/05/03 06:29:31;;;;;;;19.58;17.25;;;21.40;99.90;;;;;;5074288;28;20032;-69
2021/05/03 06:31:59;;;;;;;17.08;16.00;;;21.30;99.90;;;;;;5074424;28;20503;-70
2021/05/03 06:34:30;;;;;;;22.15;18.83;;;21.20;99.90;;;;;;5074243;28;20060;-69
2021/05/03 06:36:58;;;;;;;20.17;18.45;;;21.10;99.90;;;;;;5074217;28;20249;-70
2021/05/03 06:39:26;;;;;;;22.27;19.95;;;21.00;99.90;;;;;;5074207;28;20488;-69
2021/05/03 06:41:55;;;;;;;20.00;18.38;;;20.90;99.90;;;;;;5074005;28;20101;-67
2021/05/03 06:44:23;;;;;;;30.23;21.65;;;20.80;99.90;;;;;;5073989;28;20481;-68
2021/05/03 06:46:50;;;;;;;23.45;21.27;;;20.70;99.90;;;;;;5074291;28;20104;-68
2021/05/03 06:49:17;;;;;;;24.52;22.45;;;20.60;99.90;;;;;;5073961;28;20020;-68
2021/05/03 06:51:45;;;;;;;27.42;24.85;;;20.40;99.90;;;;;;5074078;28;20031;-68
2021/05/03 06:54:12;;;;;;;26.55;25.05;;;20.30;99.90;;;;;;5073836;28;20082;-68
2021/05/03 06:56:40;;;;;;;31.05;29.55;;;20.20;99.90;;;;;;5073646;28;20036;-68
2021/05/03 06:59:07;;;;;;;32.83;31.23;;;20.00;99.90;;;;;;5073634;28;20499;-67
2021/05/03 07:01:35;;;;;;;38.45;35.97;;;20.00;99.90;;;;;;5073756;28;20024;-67
2021/05/03 07:04:02;;;;;;;40.42;38.13;;;19.80;99.90;;;;;;5073189;28;20035;-68
2021/05/03 07:06:31;;;;;;;38.53;36.38;;;19.80;99.90;;;;;;5073257;28;20388;-68
2021/05/03 07:08:58;;;;;;;39.63;37.30;;;19.70;99.90;;;;;;5073539;28;20017;-67
2021/05/03 07:11:29;;;;;;;40.47;38.10;;;19.60;99.90;;;;;;5073529;28;20025;-68
2021/05/03 07:13:56;;;;;;;41.35;38.95;;;19.50;99.90;;;;;;5073757;28;20028;-68
2021/05/03 07:16:24;;;;;;;43.38;40.88;;;19.40;99.90;;;;;;5073320;28;20039;-68
2021/05/03 07:18:51;;;;;;;42.00;39.50;;;19.30;99.90;;;;;;5073108;28;20032;-67
2021/05/03 07:21:19;;;;;;;42.00;39.30;;;19.30;99.90;;;;;;5073373;28;20051;-68
2021/05/03 07:23:49;;;;;;;43.67;41.08;;;19.20;99.90;;;;;;5073075;28;20036;-67
2021/05/03 07:26:17;;;;;;;44.75;42.22;;;19.20;99.90;;;;;;5073539;28;20032;-62
2021/05/03 07:28:44;;;;;;;42.63;40.03;;;19.20;99.90;;;;;;5072490;28;20047;-65
2021/05/03 07:31:11;;;;;;;42.20;39.55;;;19.20;99.90;;;;;;5073281;28;20096;-67
2021/05/03 07:33:39;;;;;;;43.25;40.60;;;19.10;99.90;;;;;;5073082;28;20119;-69
2021/05/03 07:36:07;;;;;;;41.95;39.33;;;19.00;99.90;;;;;;5071710;28;20112;-63
2021/05/03 07:38:37;;;;;;;41.20;38.17;;;19.00;99.90;;;;;;5073149;28;20104;-63
2021/05/03 07:41:05;;;;;;;41.53;38.83;;;19.00;99.90;;;;;;5073232;28;20035;-63
2021/05/03 07:43:35;;;;;;;39.58;37.28;;;18.90;99.90;;;;;;5072865;28;20515;-63
2021/05/03 07:46:03;;;;;;;42.72;40.13;;;18.90;99.90;;;;;;5072871;28;20035;-64
2021/05/03 07:48:30;;;;;;;41.30;38.42;;;18.80;99.90;;;;;;5073010;28;20111;-63
2021/05/03 07:50:58;;;;;;;40.90;38.38;;;18.80;99.90;;;;;;5072865;28;20017;-64
2021/05/03 07:53:25;;;;;;;40.28;37.40;;;18.70;99.90;;;;;;5073098;28;20021;-64
2021/05/03 07:55:53;;;;;;;39.35;36.75;;;18.70;99.90;;;;;;5071704;28;20097;-64
2021/05/03 07:58:20;;;;;;;41.60;38.90;;;18.70;99.90;;;;;;5072958;28;20499;-65
2021/05/03 08:00:49;;;;;;;42.30;39.60;;;18.70;99.90;;;;;;5072808;28;20024;-65
2021/05/03 08:03:17;;;;;;;39.88;36.83;;;18.60;99.90;;;;;;5071702;28;20499;-63
2021/05/03 08:05:45;;;;;;;41.75;39.08;;;18.50;99.90;;;;;;5072797;28;20020;-60
2021/05/03 08:08:12;;;;;;;42.33;39.53;;;18.60;99.90;;;;;;5072825;28;20028;-59
2021/05/03 08:10:40;;;;;;;43.22;40.45;;;18.60;99.90;;;;;;5071546;28;20021;-60
2021/05/03 08:13:07;;;;;;;41.97;38.97;;;18.50;99.90;;;;;;5072824;28;20108;-60
2021/05/03 08:15:35;;;;;;;42.78;39.58;;;18.60;99.90;;;;;;5072815;28;20056;-59
2021/05/03 08:18:03;;;;;;;40.08;37.33;;;18.50;99.90;;;;;;5072832;28;20029;-59
2021/05/03 08:20:30;;;;;;;43.47;40.03;;;18.50;99.90;;;;;;5072591;28;20469;-60
2021/05/03 08:22:57;;;;;;;42.15;39.20;;;18.50;99.90;;;;;;5072587;28;20472;-58
2021/05/03 08:25:26;;;;;;;40.75;38.00;;;18.40;99.90;;;;;;5072853;28;20384;-59
2021/05/03 08:27:54;;;;;;;42.45;39.45;;;18.40;99.90;;;;;;5072672;28;20020;-59
2021/05/03 08:30:21;;;;;;;43.13;39.92;;;18.40;99.90;;;;;;5072626;28;20027;-59
2021/05/03 08:32:48;;;;;;;42.25;39.35;;;18.40;99.90;;;;;;5072669;28;20452;-60
2021/05/03 08:35:16;;;;;;;42.90;39.70;;;18.40;99.90;;;;;;5072636;28;20036;-59
2021/05/03 08:37:43;;;;;;;43.88;40.97;;;18.40;99.90;;;;;;5072492;28;20083;-59
2021/05/03 08:40:12;;;;;;;41.63;38.53;;;18.40;99.90;;;;;;5075460;28;20021;-59
2021/05/03 08:42:41;;;;;;;41.35;38.35;;;18.40;99.90;;;;;;5076172;28;20405;-59
2021/05/03 08:45:09;;;;;;;43.28;40.17;;;18.40;99.90;;;;;;5076320;28;20047;-58
2021/05/03 08:47:39;;;;;;;41.70;38.80;;;18.40;99.90;;;;;;5075010;28;20024;-58
2021/05/03 08:50:20;;;;;;;44.47;41.38;;;18.40;99.90;;;;;;5076236;28;20063;-59
2021/05/03 08:52:53;;;;;;;42.38;39.33;;;18.30;99.90;;;;;;5076200;28;20425;-59
2021/05/03 08:55:21;;;;;;;42.10;39.15;;;18.30;99.90;;;;;;5076065;28;20020;-59
2021/05/03 08:57:48;;;;;;;40.83;37.95;;;18.30;99.90;;;;;;5076041;28;20021;-59
2021/05/03 09:00:17;;;;;;;43.80;40.22;;;18.20;99.90;;;;;;5076051;28;20477;-59
2021/05/03 09:02:48;;;;;;;42.47;39.40;;;18.50;99.90;;;;;;5075752;28;20020;-58
2021/05/03 09:05:16;;;;;;;41.17;38.42;;;18.50;99.90;;;;;;5075779;28;20020;-60
2021/05/03 09:07:51;;;;;;;42.03;39.22;;;18.40;99.90;;;;;;5075733;28;20020;-60
2021/05/03 09:10:22;;;;;;;43.25;40.30;;;18.30;99.90;;;;;;5075938;28;20437;-60
2021/05/03 09:12:50;;;;;;;42.70;39.60;;;18.20;99.90;;;;;;5075848;28;20108;-65
2021/05/03 09:15:25;;;;;;;42.08;39.28;;;18.30;99.90;;;;;;5075843;28;20424;-64
2021/05/03 09:17:53;;;;;;;41.92;39.22;;;18.20;99.90;;;;;;5075846;28;20028;-64
2021/05/03 09:20:24;;;;;;;42.45;39.55;;;18.20;99.90;;;;;;5075726;28;20052;-64
2021/05/03 09:23:05;;;;;;;40.80;38.05;;;18.10;99.90;;;;;;5074407;28;20028;-65
2021/05/03 09:25:35;;;;;;;;;;;18.10;99.90;;;;;;5076275;28;20107;-65
2021/05/03 09:28:14;;;;;;;42.47;39.60;;;18.10;99.90;;;;;;5075416;28;19912;-64
2021/05/03 09:30:47;;;;;;;42.60;39.80;;;18.10;99.90;;;;;;5074307;28;20035;-64
2021/05/03 09:33:35;;;;;;;43.15;40.30;;;18.10;99.90;;;;;;5075544;28;20096;-63
2021/05/03 09:36:07;;;;;;;42.50;39.78;;;18.10;99.90;;;;;;5075476;28;20125;-64
2021/05/03 09:38:39;;;;;;;42.58;39.78;;;18.10;99.90;;;;;;5075399;28;20536;-65
2021/05/03 09:41:23;;;;;;;43.13;40.13;;;18.10;99.90;;;;;;5074032;28;20031;-64
2021/05/03 09:43:58;;;;;;;43.92;41.10;;;18.10;99.90;;;;;;5073746;28;20044;-65
2021/05/03 09:46:51;;;;;;;44.60;41.75;;;18.10;99.90;;;;;;5075319;28;20024;-65
2021/05/03 09:49:25;;;;;;;43.55;40.65;;;18.10;99.90;;;;;;5075319;28;20027;-65
2021/05/03 09:51:56;;;;;;;43.35;40.55;;;18.10;99.90;;;;;;5074687;28;20123;-65
2021/05/03 09:54:27;;;;;;;43.83;41.08;;;18.10;99.90;;;;;;5075088;28;20020;-64
2021/05/03 09:57:13;;;;;;;43.35;40.20;;;18.10;99.90;;;;;;5075125;28;20050;-64
2021/05/03 09:59:49;;;;;;;42.72;39.67;;;18.10;99.90;;;;;;5075297;28;20040;-64
2021/05/03 10:02:24;;;;;;;43.00;40.22;;;18.10;99.90;;;;;;5075295;28;20153;-64
2021/05/03 10:05:03;;;;;;;43.00;40.20;;;18.10;99.90;;;;;;5074918;28;20108;-64
2021/05/03 10:07:33;;;;;;;43.30;40.40;;;18.10;99.90;;;;;;5075081;28;20017;-64
2021/05/03 10:10:16;;;;;;;40.83;38.00;;;18.20;99.90;;;;;;5075462;28;20009;-64
2021/05/03 10:12:45;;;;;;;41.78;38.90;;;18.20;99.90;;;;;;5074849;28;20063;-65
2021/05/03 10:15:18;;;;;;;42.70;39.72;;;18.30;99.90;;;;;;5075032;28;20058;-64
2021/05/03 10:17:46;;;;;;;42.75;39.75;;;18.20;99.90;;;;;;5074538;28;20025;-64
2021/05/03 10:20:20;;;;;;;48.17;44.50;;;18.20;99.90;;;;;;5074696;28;20465;-64
2021/05/03 10:22:56;;;;;;;42.75;39.85;;;18.20;99.90;;;;;;5074368;28;20500;-64
2021/05/03 10:25:24;;;;;;;41.63;38.83;;;18.20;99.90;;;;;;5074408;28;20017;-64
2021/05/03 10:27:53;;;;;;;41.15;38.35;;;18.20;99.90;;;;;;5074487;28;20012;-64
2021/05/03 10:30:25;;;;;;;42.92;39.97;;;18.10;99.90;;;;;;5074478;28;20436;-64
2021/05/03 10:33:09;;;;;;;42.20;39.25;;;18.10;99.90;;;;;;5074431;28;20225;-65
2021/05/03 10:35:45;;;;;;;40.63;38.00;;;18.10;99.90;;;;;;5074460;28;20020;-65
2021/05/03 10:38:32;;;;;;;41.15;38.58;;;18.10;99.90;;;;;;5074273;28;20044;-64
2021/05/03 10:41:02;;;;;;;42.20;39.60;;;18.00;99.90;;;;;;5074046;28;20036;-64
2021/05/03 10:43:43;;;;;;;42.83;40.05;;;18.00;99.90;;;;;;5073890;28;20135;-65
2021/05/03 10:49:20;;;;;;;41.90;39.20;;;18.00;99.90;;;;;;5074072;28;20020;-64
2021/05/03 10:54:47;;;;;;;41.08;38.47;;;18.00;99.90;;;;;;5074050;28;20493;-65
2021/05/03 10:57:20;;;;;;;41.57;38.83;;;18.00;99.90;;;;;;5074032;28;20078;-64
2021/05/03 10:59:55;;;;;;;41.47;38.53;;;18.00;99.90;;;;;;5072615;28;20025;-64
2021/05/03 11:02:48;;;;;;;43.10;40.10;;;17.90;99.90;;;;;;5073649;28;20029;-64
2021/05/03 11:05:23;;;;;;;43.67;40.78;;;17.90;99.90;;;;;;5071395;28;20397;-64
2021/05/03 11:08:06;;;;;;;44.03;41.13;;;17.90;99.90;;;;;;5073796;28;20070;-64
2021/05/03 11:11:03;;;;;;;45.20;42.17;;;17.80;99.90;;;;;;5073579;28;20020;-64
2021/05/03 11:13:56;;;;;;;45.92;43.13;;;17.80;99.90;;;;;;5073686;28;20029;-64
2021/05/03 11:16:30;;;;;;;43.72;40.83;;;17.80;99.90;;;;;;5073501;28;20401;-64
2021/05/03 11:19:00;;;;;;;43.70;40.72;;;17.80;99.90;;;;;;5073376;28;20028;-63
2021/05/03 11:21:45;;;;;;;45.47;42.60;;;17.70;99.90;;;;;;5073380;28;20572;-64
2021/05/03 11:24:37;;;;;;;46.53;43.33;;;17.70;99.90;;;;;;5073441;28;20070;-64
2021/05/03 11:27:09;;;;;;;44.28;41.25;;;17.70;99.90;;;;;;5073332;28;20104;-64
2021/05/03 11:29:47;;;;;;;44.20;41.20;;;17.70;99.90;;;;;;5072133;28;20109;-64
2021/05/03 11:32:15;;;;;;;44.67;41.58;;;17.70;99.90;;;;;;5073244;28;20025;-64
2021/05/03 11:35:02;;;;;;;44.83;41.65;;;17.70;99.90;;;;;;5073100;28;20385;-64
2021/05/03 11:37:40;;;;;;;43.35;40.25;;;17.70;99.90;;;;;;5072067;28;20021;-63
2021/05/03 11:45:28;;;;;;;45.88;42.47;;;17.60;99.90;;;;;;5073017;28;20025;-64
2021/05/03 11:48:00;;;;;;;47.78;44.63;;;17.50;99.90;;;;;;5073085;28;20045;-64
2021/05/03 11:50:30;;;;;;;47.30;44.40;;;17.50;99.90;;;;;;5071948;28;20024;-64
2021/05/03 11:52:57;;;;;;;47.95;44.63;;;17.40;99.90;;;;;;5073008;28;20034;-64
2021/05/03 11:55:26;;;;;;;49.33;46.17;;;17.30;99.90;;;;;;5072973;28;20028;-64
2021/05/03 11:57:55;;;;;;;45.50;42.45;;;17.20;99.90;;;;;;5073023;28;20025;-63
2021/05/03 12:00:25;;;;;;;46.03;42.92;;;17.20;99.90;;;;;;5072886;28;20496;-64
2021/05/03 12:03:04;;;;;;;47.58;44.45;;;17.20;99.90;;;;;;5072867;28;20020;-64
2021/05/03 12:05:32;;;;;;;47.38;44.28;;;17.30;99.90;;;;;;5072892;28;20477;-66
2021/05/03 12:08:13;;;;;;;49.13;46.08;;;17.30;99.90;;;;;;5071664;28;20056;-65
2021/05/03 12:10:41;;;;;;;49.00;45.60;;;17.20;99.90;;;;;;5072983;28;20462;-64
2021/05/03 12:13:15;;;;;;;47.40;44.20;;;17.30;99.90;;;;;;5072775;28;20031;-64
2021/05/03 12:15:42;;;;;;;50.10;47.08;;;17.30;99.90;;;;;;5076894;28;20085;-64
2021/05/03 12:18:17;;;;;;;48.78;45.55;;;17.30;99.90;;;;;;5076868;28;20020;-64
2021/05/03 12:20:45;;;;;;;50.08;46.55;;;17.30;99.90;;;;;;5076909;28;20017;-63
2021/05/03 12:23:14;;;;;;;51.30;47.80;;;17.30;99.90;;;;;;5076805;28;20035;-64
2021/05/03 12:25:59;;;;;;;52.65;49.15;;;17.30;99.90;;;;;;5076863;28;20021;-64
2021/05/03 12:28:30;;;;;;;53.60;50.03;;;17.30;99.90;;;;;;5077020;28;20028;-63
2021/05/03 12:31:02;;;;;;;53.33;50.03;;;17.30;99.90;;;;;;5076753;28;20051;-64
2021/05/03 12:33:29;;;;;;;50.95;47.75;;;17.30;99.90;;;;;;5076687;28;20152;-64
2021/05/03 12:35:58;;;;;;;50.80;47.60;;;17.30;99.90;;;;;;5075343;28;20024;-64
2021/05/03 12:38:31;;;;;;;48.00;44.70;;;17.40;99.90;;;;;;5075482;28;20029;-64
2021/05/03 12:41:01;;;;;;;47.58;43.92;;;17.30;99.90;;;;;;5076529;28;20036;-64
2021/05/03 12:43:36;;;;;;;51.07;47.73;;;17.40;99.90;;;;;;5076383;28;20495;-64
2021/05/03 12:46:10;;;;;;;50.92;47.55;;;17.40;99.90;;;;;;5076487;28;20260;-65
2021/05/03 12:48:48;;;;;;;50.78;47.40;;;17.40;99.90;;;;;;5076418;28;20025;-61
2021/05/03 12:51:26;;;;;;;50.35;46.95;;;17.50;99.90;;;;;;5076165;28;20020;-60
2021/05/03 12:57:05;;;;;;;49.50;46.22;;;17.50;99.90;;;;;;5076340;28;20036;-62
2021/05/03 13:05:24;;;;;;;50.72;47.42;;;17.50;99.90;;;;;;5076137;28;20021;-61
2021/05/03 13:08:08;;;;;;;50.90;47.50;;;17.50;99.90;;;;;;5076051;28;20094;-61
2021/05/03 13:24:56;;;;;;;;;;;;;;;;;;;;;
2021/05/03 13:30:25;;;;;;;52.30;49.03;;;17.30;99.90;;;;;;5075771;28;20028;-62
2021/05/03 13:32:53;;;;;;;54.17;50.58;;;17.30;99.90;;;;;;5075575;28;20028;-62